<?xml version="1.0" encoding="UTF-8" standalone="no" ?>
<gpx xmlns="http://www.topografix.com/GPX/1/1" xmlns:xsi="http://www.w3.org/2001/XMLSchema-instance" xsi:schemaLocation="http://www.topografix.com/GPX/1/1 http://www.topografix.com/GPX/1/1/gpx.xsd" version="1.1" creator="VisuGPX - https://www.visugpx.com">
  <metadata>
    <name>Les 4 lacs </name>
  </metadata>
  <trk>
    <name><![CDATA[Les 4 lacs _3]]></name>
    <trkseg>
      <trkpt lat="43.40549" lon="2.18826">
        <ele>725.93</ele>
        <time>2015-12-19T09:50:10Z</time>
      </trkpt>
      <trkpt lat="43.40569" lon="2.18839">
        <ele>727.86</ele>
        <time>2015-12-19T09:50:19Z</time>
      </trkpt>
      <trkpt lat="43.40581" lon="2.18853">
        <ele>728.34</ele>
        <time>2015-12-19T09:50:25Z</time>
      </trkpt>
      <trkpt lat="43.40587" lon="2.18875">
        <ele>729.3</ele>
        <time>2015-12-19T09:50:32Z</time>
      </trkpt>
      <trkpt lat="43.40592" lon="2.18908">
        <ele>729.3</ele>
        <time>2015-12-19T09:50:40Z</time>
      </trkpt>
      <trkpt lat="43.40604" lon="2.18932">
        <ele>730.26</ele>
        <time>2015-12-19T09:50:47Z</time>
      </trkpt>
      <trkpt lat="43.40619" lon="2.18947">
        <ele>730.26</ele>
        <time>2015-12-19T09:50:53Z</time>
      </trkpt>
      <trkpt lat="43.4064" lon="2.18958">
        <ele>730.74</ele>
        <time>2015-12-19T09:51:01Z</time>
      </trkpt>
      <trkpt lat="43.40648" lon="2.18968">
        <ele>731.22</ele>
        <time>2015-12-19T09:51:05Z</time>
      </trkpt>
      <trkpt lat="43.40628" lon="2.19019">
        <ele>734.1</ele>
        <time>2015-12-19T09:56:26Z</time>
      </trkpt>
      <trkpt lat="43.40625" lon="2.19051">
        <ele>735.55</ele>
        <time>2015-12-19T09:56:34Z</time>
      </trkpt>
      <trkpt lat="43.40623" lon="2.19094">
        <ele>733.14</ele>
        <time>2015-12-19T09:56:41Z</time>
      </trkpt>
      <trkpt lat="43.4062" lon="2.19116">
        <ele>730.74</ele>
        <time>2015-12-19T09:56:44Z</time>
      </trkpt>
      <trkpt lat="43.40619" lon="2.19124">
        <ele>731.22</ele>
        <time>2015-12-19T09:56:45Z</time>
      </trkpt>
      <trkpt lat="43.40618" lon="2.19131">
        <ele>730.26</ele>
        <time>2015-12-19T09:56:46Z</time>
      </trkpt>
      <trkpt lat="43.40616" lon="2.19138">
        <ele>730.26</ele>
        <time>2015-12-19T09:56:47Z</time>
      </trkpt>
      <trkpt lat="43.40614" lon="2.19146">
        <ele>729.78</ele>
        <time>2015-12-19T09:56:48Z</time>
      </trkpt>
      <trkpt lat="43.40604" lon="2.19183">
        <ele>729.78</ele>
        <time>2015-12-19T09:56:54Z</time>
      </trkpt>
      <trkpt lat="43.40592" lon="2.19217">
        <ele>728.82</ele>
        <time>2015-12-19T09:57:00Z</time>
      </trkpt>
      <trkpt lat="43.40584" lon="2.19245">
        <ele>728.82</ele>
        <time>2015-12-19T09:57:04Z</time>
      </trkpt>
      <trkpt lat="43.40582" lon="2.19252">
        <ele>728.82</ele>
        <time>2015-12-19T09:57:05Z</time>
      </trkpt>
      <trkpt lat="43.40578" lon="2.19266">
        <ele>727.37</ele>
        <time>2015-12-19T09:57:07Z</time>
      </trkpt>
      <trkpt lat="43.40571" lon="2.19297">
        <ele>725.93</ele>
        <time>2015-12-19T09:57:11Z</time>
      </trkpt>
      <trkpt lat="43.40559" lon="2.19358">
        <ele>724.97</ele>
        <time>2015-12-19T09:57:18Z</time>
      </trkpt>
      <trkpt lat="43.40557" lon="2.19365">
        <ele>724.97</ele>
        <time>2015-12-19T09:57:19Z</time>
      </trkpt>
      <trkpt lat="43.40554" lon="2.19372">
        <ele>724.49</ele>
        <time>2015-12-19T09:57:20Z</time>
      </trkpt>
      <trkpt lat="43.4055" lon="2.19377">
        <ele>724.49</ele>
        <time>2015-12-19T09:57:21Z</time>
      </trkpt>
      <trkpt lat="43.40547" lon="2.19382">
        <ele>724.97</ele>
        <time>2015-12-19T09:57:22Z</time>
      </trkpt>
      <trkpt lat="43.40542" lon="2.19385">
        <ele>724.01</ele>
        <time>2015-12-19T09:57:23Z</time>
      </trkpt>
      <trkpt lat="43.40537" lon="2.19388">
        <ele>725.45</ele>
        <time>2015-12-19T09:57:24Z</time>
      </trkpt>
      <trkpt lat="43.40533" lon="2.1939">
        <ele>725.45</ele>
        <time>2015-12-19T09:57:25Z</time>
      </trkpt>
      <trkpt lat="43.40504" lon="2.19398">
        <ele>727.37</ele>
        <time>2015-12-19T09:57:32Z</time>
      </trkpt>
      <trkpt lat="43.40479" lon="2.19403">
        <ele>728.34</ele>
        <time>2015-12-19T09:57:39Z</time>
      </trkpt>
      <trkpt lat="43.4045" lon="2.19415">
        <ele>729.78</ele>
        <time>2015-12-19T09:57:47Z</time>
      </trkpt>
      <trkpt lat="43.40421" lon="2.19437">
        <ele>730.74</ele>
        <time>2015-12-19T09:57:55Z</time>
      </trkpt>
      <trkpt lat="43.4041" lon="2.19446">
        <ele>731.22</ele>
        <time>2015-12-19T09:57:58Z</time>
      </trkpt>
      <trkpt lat="43.40407" lon="2.19449">
        <ele>730.26</ele>
        <time>2015-12-19T09:57:59Z</time>
      </trkpt>
      <trkpt lat="43.40403" lon="2.19452">
        <ele>731.22</ele>
        <time>2015-12-19T09:58:00Z</time>
      </trkpt>
      <trkpt lat="43.40399" lon="2.19455">
        <ele>731.22</ele>
        <time>2015-12-19T09:58:01Z</time>
      </trkpt>
      <trkpt lat="43.40395" lon="2.19458">
        <ele>730.74</ele>
        <time>2015-12-19T09:58:02Z</time>
      </trkpt>
      <trkpt lat="43.40392" lon="2.19461">
        <ele>731.22</ele>
        <time>2015-12-19T09:58:03Z</time>
      </trkpt>
      <trkpt lat="43.4036" lon="2.19486">
        <ele>731.22</ele>
        <time>2015-12-19T09:58:12Z</time>
      </trkpt>
      <trkpt lat="43.40347" lon="2.195">
        <ele>731.7</ele>
        <time>2015-12-19T09:58:16Z</time>
      </trkpt>
      <trkpt lat="43.40317" lon="2.1953">
        <ele>731.7</ele>
        <time>2015-12-19T09:58:24Z</time>
      </trkpt>
      <trkpt lat="43.40277" lon="2.19567">
        <ele>732.18</ele>
        <time>2015-12-19T09:58:34Z</time>
      </trkpt>
      <trkpt lat="43.40252" lon="2.19609">
        <ele>732.66</ele>
        <time>2015-12-19T09:59:52Z</time>
      </trkpt>
      <trkpt lat="43.40251" lon="2.19612">
        <ele>732.18</ele>
        <time>2015-12-19T09:59:53Z</time>
      </trkpt>
      <trkpt lat="43.4025" lon="2.19614">
        <ele>732.66</ele>
        <time>2015-12-19T09:59:54Z</time>
      </trkpt>
      <trkpt lat="43.40248" lon="2.19616">
        <ele>732.18</ele>
        <time>2015-12-19T09:59:55Z</time>
      </trkpt>
      <trkpt lat="43.40246" lon="2.19618">
        <ele>732.66</ele>
        <time>2015-12-19T09:59:56Z</time>
      </trkpt>
      <trkpt lat="43.40237" lon="2.19636">
        <ele>733.62</ele>
        <time>2015-12-19T10:00:02Z</time>
      </trkpt>
      <trkpt lat="43.4023" lon="2.19653">
        <ele>732.66</ele>
        <time>2015-12-19T10:00:08Z</time>
      </trkpt>
      <trkpt lat="43.40221" lon="2.19674">
        <ele>733.14</ele>
        <time>2015-12-19T10:00:15Z</time>
      </trkpt>
      <trkpt lat="43.40205" lon="2.19696">
        <ele>731.7</ele>
        <time>2015-12-19T10:00:21Z</time>
      </trkpt>
      <trkpt lat="43.40183" lon="2.19732">
        <ele>734.1</ele>
        <time>2015-12-19T10:00:29Z</time>
      </trkpt>
      <trkpt lat="43.40174" lon="2.19746">
        <ele>733.14</ele>
        <time>2015-12-19T10:00:32Z</time>
      </trkpt>
      <trkpt lat="43.40172" lon="2.19752">
        <ele>733.14</ele>
        <time>2015-12-19T10:00:33Z</time>
      </trkpt>
      <trkpt lat="43.40152" lon="2.19793">
        <ele>733.14</ele>
        <time>2015-12-19T10:00:41Z</time>
      </trkpt>
      <trkpt lat="43.40132" lon="2.19815">
        <ele>735.07</ele>
        <time>2015-12-19T10:00:47Z</time>
      </trkpt>
      <trkpt lat="43.40117" lon="2.19835">
        <ele>735.07</ele>
        <time>2015-12-19T10:00:53Z</time>
      </trkpt>
      <trkpt lat="43.40102" lon="2.19861">
        <ele>733.14</ele>
        <time>2015-12-19T10:01:00Z</time>
      </trkpt>
      <trkpt lat="43.40099" lon="2.19864">
        <ele>733.14</ele>
        <time>2015-12-19T10:01:01Z</time>
      </trkpt>
      <trkpt lat="43.40097" lon="2.19866">
        <ele>733.14</ele>
        <time>2015-12-19T10:01:02Z</time>
      </trkpt>
      <trkpt lat="43.40095" lon="2.19869">
        <ele>732.66</ele>
        <time>2015-12-19T10:01:03Z</time>
      </trkpt>
      <trkpt lat="43.40093" lon="2.19873">
        <ele>733.14</ele>
        <time>2015-12-19T10:01:04Z</time>
      </trkpt>
      <trkpt lat="43.40091" lon="2.19876">
        <ele>732.18</ele>
        <time>2015-12-19T10:01:05Z</time>
      </trkpt>
      <trkpt lat="43.4009" lon="2.19878">
        <ele>731.7</ele>
        <time>2015-12-19T10:01:06Z</time>
      </trkpt>
      <trkpt lat="43.40076" lon="2.199">
        <ele>732.18</ele>
        <time>2015-12-19T10:01:11Z</time>
      </trkpt>
      <trkpt lat="43.40069" lon="2.1991">
        <ele>730.26</ele>
        <time>2015-12-19T10:01:13Z</time>
      </trkpt>
      <trkpt lat="43.40062" lon="2.19921">
        <ele>729.78</ele>
        <time>2015-12-19T10:01:15Z</time>
      </trkpt>
      <trkpt lat="43.40058" lon="2.19926">
        <ele>728.82</ele>
        <time>2015-12-19T10:01:16Z</time>
      </trkpt>
      <trkpt lat="43.40051" lon="2.19936">
        <ele>726.89</ele>
        <time>2015-12-19T10:01:18Z</time>
      </trkpt>
      <trkpt lat="43.40048" lon="2.19941">
        <ele>726.41</ele>
        <time>2015-12-19T10:01:19Z</time>
      </trkpt>
      <trkpt lat="43.40045" lon="2.19947">
        <ele>724.97</ele>
        <time>2015-12-19T10:01:20Z</time>
      </trkpt>
      <trkpt lat="43.40039" lon="2.19959">
        <ele>724.49</ele>
        <time>2015-12-19T10:01:22Z</time>
      </trkpt>
      <trkpt lat="43.40032" lon="2.19971">
        <ele>721.13</ele>
        <time>2015-12-19T10:01:25Z</time>
      </trkpt>
      <trkpt lat="43.40029" lon="2.19975">
        <ele>721.13</ele>
        <time>2015-12-19T10:01:26Z</time>
      </trkpt>
      <trkpt lat="43.40024" lon="2.19979">
        <ele>718.72</ele>
        <time>2015-12-19T10:01:28Z</time>
      </trkpt>
      <trkpt lat="43.40019" lon="2.19986">
        <ele>715.36</ele>
        <time>2015-12-19T10:01:30Z</time>
      </trkpt>
      <trkpt lat="43.40003" lon="2.19999">
        <ele>711.99</ele>
        <time>2015-12-19T10:01:35Z</time>
      </trkpt>
      <trkpt lat="43.39999" lon="2.2">
        <ele>711.99</ele>
        <time>2015-12-19T10:01:36Z</time>
      </trkpt>
      <trkpt lat="43.39993" lon="2.20006">
        <ele>712.47</ele>
        <time>2015-12-19T10:01:38Z</time>
      </trkpt>
      <trkpt lat="43.39991" lon="2.20011">
        <ele>713.44</ele>
        <time>2015-12-19T10:01:39Z</time>
      </trkpt>
      <trkpt lat="43.39989" lon="2.20017">
        <ele>713.44</ele>
        <time>2015-12-19T10:01:40Z</time>
      </trkpt>
      <trkpt lat="43.39988" lon="2.20022">
        <ele>713.44</ele>
        <time>2015-12-19T10:01:41Z</time>
      </trkpt>
      <trkpt lat="43.39987" lon="2.20026">
        <ele>712.95</ele>
        <time>2015-12-19T10:01:42Z</time>
      </trkpt>
      <trkpt lat="43.39988" lon="2.2003">
        <ele>712.47</ele>
        <time>2015-12-19T10:01:43Z</time>
      </trkpt>
      <trkpt lat="43.39988" lon="2.20032">
        <ele>711.99</ele>
        <time>2015-12-19T10:01:44Z</time>
      </trkpt>
      <trkpt lat="43.3999" lon="2.20036">
        <ele>712.95</ele>
        <time>2015-12-19T10:01:49Z</time>
      </trkpt>
      <trkpt lat="43.39988" lon="2.20038">
        <ele>712.47</ele>
        <time>2015-12-19T10:01:52Z</time>
      </trkpt>
      <trkpt lat="43.39983" lon="2.20046">
        <ele>712.95</ele>
        <time>2015-12-19T10:02:00Z</time>
      </trkpt>
      <trkpt lat="43.39982" lon="2.20047">
        <ele>712.47</ele>
        <time>2015-12-19T10:02:06Z</time>
      </trkpt>
      <trkpt lat="43.39985" lon="2.20049">
        <ele>712.95</ele>
        <time>2015-12-19T10:02:21Z</time>
      </trkpt>
      <trkpt lat="43.39987" lon="2.2005">
        <ele>712.47</ele>
        <time>2015-12-19T10:02:31Z</time>
      </trkpt>
      <trkpt lat="43.39987" lon="2.20048">
        <ele>711.99</ele>
        <time>2015-12-19T10:02:49Z</time>
      </trkpt>
      <trkpt lat="43.39988" lon="2.20049">
        <ele>712.47</ele>
        <time>2015-12-19T10:03:02Z</time>
      </trkpt>
      <trkpt lat="43.39987" lon="2.2005">
        <ele>712.95</ele>
        <time>2015-12-19T10:03:06Z</time>
      </trkpt>
      <trkpt lat="43.39986" lon="2.20052">
        <ele>712.95</ele>
        <time>2015-12-19T10:03:07Z</time>
      </trkpt>
      <trkpt lat="43.39985" lon="2.20053">
        <ele>713.44</ele>
        <time>2015-12-19T10:03:08Z</time>
      </trkpt>
      <trkpt lat="43.39982" lon="2.20058">
        <ele>712.47</ele>
        <time>2015-12-19T10:03:10Z</time>
      </trkpt>
      <trkpt lat="43.39974" lon="2.20083">
        <ele>712.95</ele>
        <time>2015-12-19T10:03:16Z</time>
      </trkpt>
      <trkpt lat="43.39975" lon="2.20114">
        <ele>713.44</ele>
        <time>2015-12-19T10:03:23Z</time>
      </trkpt>
      <trkpt lat="43.39973" lon="2.20146">
        <ele>714.88</ele>
        <time>2015-12-19T10:03:30Z</time>
      </trkpt>
      <trkpt lat="43.39968" lon="2.20171">
        <ele>715.36</ele>
        <time>2015-12-19T10:03:36Z</time>
      </trkpt>
      <trkpt lat="43.39965" lon="2.202">
        <ele>716.8</ele>
        <time>2015-12-19T10:03:43Z</time>
      </trkpt>
      <trkpt lat="43.39963" lon="2.20226">
        <ele>718.72</ele>
        <time>2015-12-19T10:03:49Z</time>
      </trkpt>
      <trkpt lat="43.39963" lon="2.20242">
        <ele>720.16</ele>
        <time>2015-12-19T10:03:54Z</time>
      </trkpt>
      <trkpt lat="43.39959" lon="2.20262">
        <ele>721.61</ele>
        <time>2015-12-19T10:04:00Z</time>
      </trkpt>
      <trkpt lat="43.39958" lon="2.20266">
        <ele>721.61</ele>
        <time>2015-12-19T10:04:01Z</time>
      </trkpt>
      <trkpt lat="43.39949" lon="2.20288">
        <ele>724.01</ele>
        <time>2015-12-19T10:04:08Z</time>
      </trkpt>
      <trkpt lat="43.39948" lon="2.20291">
        <ele>724.49</ele>
        <time>2015-12-19T10:04:09Z</time>
      </trkpt>
      <trkpt lat="43.39942" lon="2.20311">
        <ele>725.93</ele>
        <time>2015-12-19T10:04:16Z</time>
      </trkpt>
      <trkpt lat="43.39934" lon="2.2033">
        <ele>727.37</ele>
        <time>2015-12-19T10:04:23Z</time>
      </trkpt>
      <trkpt lat="43.39925" lon="2.20349">
        <ele>729.3</ele>
        <time>2015-12-19T10:04:31Z</time>
      </trkpt>
      <trkpt lat="43.39919" lon="2.20369">
        <ele>730.74</ele>
        <time>2015-12-19T10:04:38Z</time>
      </trkpt>
      <trkpt lat="43.39913" lon="2.20389">
        <ele>731.22</ele>
        <time>2015-12-19T10:04:45Z</time>
      </trkpt>
      <trkpt lat="43.39905" lon="2.20405">
        <ele>732.18</ele>
        <time>2015-12-19T10:04:51Z</time>
      </trkpt>
      <trkpt lat="43.39904" lon="2.20407">
        <ele>731.7</ele>
        <time>2015-12-19T10:04:52Z</time>
      </trkpt>
      <trkpt lat="43.39902" lon="2.20409">
        <ele>731.7</ele>
        <time>2015-12-19T10:04:53Z</time>
      </trkpt>
      <trkpt lat="43.39901" lon="2.20412">
        <ele>732.18</ele>
        <time>2015-12-19T10:04:54Z</time>
      </trkpt>
      <trkpt lat="43.39892" lon="2.20434">
        <ele>733.14</ele>
        <time>2015-12-19T10:05:02Z</time>
      </trkpt>
      <trkpt lat="43.39886" lon="2.20458">
        <ele>732.66</ele>
        <time>2015-12-19T10:05:10Z</time>
      </trkpt>
      <trkpt lat="43.39881" lon="2.20484">
        <ele>732.18</ele>
        <time>2015-12-19T10:05:18Z</time>
      </trkpt>
      <trkpt lat="43.39875" lon="2.20505">
        <ele>731.22</ele>
        <time>2015-12-19T10:05:24Z</time>
      </trkpt>
      <trkpt lat="43.39867" lon="2.2054">
        <ele>731.22</ele>
        <time>2015-12-19T10:05:32Z</time>
      </trkpt>
      <trkpt lat="43.39865" lon="2.20551">
        <ele>730.74</ele>
        <time>2015-12-19T10:05:34Z</time>
      </trkpt>
      <trkpt lat="43.39866" lon="2.20591">
        <ele>730.26</ele>
        <time>2015-12-19T10:05:41Z</time>
      </trkpt>
      <trkpt lat="43.39868" lon="2.20609">
        <ele>730.26</ele>
        <time>2015-12-19T10:05:46Z</time>
      </trkpt>
      <trkpt lat="43.3987" lon="2.20637">
        <ele>729.78</ele>
        <time>2015-12-19T10:05:52Z</time>
      </trkpt>
      <trkpt lat="43.39876" lon="2.2067">
        <ele>730.26</ele>
        <time>2015-12-19T10:05:59Z</time>
      </trkpt>
      <trkpt lat="43.39881" lon="2.20701">
        <ele>731.22</ele>
        <time>2015-12-19T10:06:06Z</time>
      </trkpt>
      <trkpt lat="43.39885" lon="2.2073">
        <ele>733.14</ele>
        <time>2015-12-19T10:06:13Z</time>
      </trkpt>
      <trkpt lat="43.39895" lon="2.20747">
        <ele>734.1</ele>
        <time>2015-12-19T10:06:19Z</time>
      </trkpt>
      <trkpt lat="43.39913" lon="2.20749">
        <ele>736.03</ele>
        <time>2015-12-19T10:06:26Z</time>
      </trkpt>
      <trkpt lat="43.39927" lon="2.20738">
        <ele>736.99</ele>
        <time>2015-12-19T10:06:33Z</time>
      </trkpt>
      <trkpt lat="43.39938" lon="2.20736">
        <ele>738.43</ele>
        <time>2015-12-19T10:06:39Z</time>
      </trkpt>
      <trkpt lat="43.3995" lon="2.20744">
        <ele>740.83</ele>
        <time>2015-12-19T10:06:45Z</time>
      </trkpt>
      <trkpt lat="43.39962" lon="2.20751">
        <ele>742.76</ele>
        <time>2015-12-19T10:06:52Z</time>
      </trkpt>
    </trkseg>
  </trk>
</gpx>